Bloomfield, Nebraska
Current Conditions -  °F | °C
As of 9:15 PM on Saturday 20 Dec 2014 (Local Time) from KYKN Reporting Station
Overcast Overcast  
Wind Chill: 23°   Ceiling: 500
Heat Index: 32°   Visibility: 5mi
Dew Point: 30°   Wind: 13mph
Humidity: 93%   Direction: 170°S
Pressure: 29.99"   Gusts: 16mph
Location:  42.6°N, 97.65°W
Report Text: KYKN 210315Z AUTO 17011G14KT 5SM OVC005 00/M01 A2999 RMK AO1
Loading
Personal Weather Stations






























Interactive Weather Map New forecast layout! Learn more

10-Day Weather Forecast

Advertisements
Track Severe Weather on mobile